Terminal Aerodrome Forecast
Issued by NWS Charleston, WV

Current Version | Previous Version | Graphics & Text | Print | Product List | Glossary On
Versions: 1 2 3 4 5 6 7 8 9 10 11 12 13 14 15 16 17 18 19 20 21 22 23 24 25
376
FTUS41 KRLX 252357 CCA
TAFEKN
TAF COR
KEKN 252357Z 2600/2624 28014G24KT P6SM FEW045 BKN060
     FM260200 28012G24KT 6SM -SHSN OVC030
      TEMPO 2602/2606 5SM -SHSN
     FM261000 28011G20KT P6SM OVC035
     FM261300 26006KT P6SM BKN035
     FM261500 28013KT P6SM BKN250
     FM262300 23005KT P6SM FEW250=

USA.gov is the U.S. government's official web portal to all federal, state and local government web resources and services.